Clifford Maersk — OYRO2 — position and weather

sailwx.info

Track history (hours):
 
Tides and Currents Weather Stations Pressure Air Temp Water Temp Dewpoint Dewpoint Depression Visibility Wind Speed Wind Dir Waves Ship Positions

Clifford Maersk

Last reported at 2017-Aug-07 15:15 UTC. Time now 2017-Aug-21 08:26 UTC.
Position N 39°56' W 132°42'.
Warning: this ship's position is 13 days out of date.

Type: Ship (hazmat cat A). MMSI: 219840000.

Date/timePositionNaut miles runAvg speedWind from/ knotsBaromVisibWave heightAir tempDewpointWater temp
2017-Aug-07 15:15N 39°56' W 132°42'1719.5
2017-Aug-07 14:23N 39°44' W 132°26'819.3
2017-Aug-07 13:56N 39°38' W 132°18'919.4
2017-Aug-07 13:30N 39°32' W 132°10'1119.5
2017-Aug-07 12:55N 39°24' W 132°00'819.3
2017-Aug-07 12:30N 39°18' W 131°53'1019.4
2017-Aug-07 11:59N 39°11' W 131°44'1019.4
2017-Aug-07 11:30N 39°04' W 131°36'1019.3
2017-Aug-07 11:00N 38°57' W 131°27'1019.3
2017-Aug-07 10:30N 38°50' W 131°18'1119.4
2017-Aug-07 09:58N 38°43' W 131°09'1019.3
2017-Aug-07 09:26N 38°36' W 130°60'919.3
2017-Aug-07 08:58N 38°29' W 130°52'1519.3
2017-Aug-07 08:10N 38°18' W 130°38'319.5
2017-Aug-07 08:00N 38°16' W 130°35'1219.3
2017-Aug-07 07:22N 38°07' W 130°25'919.4
2017-Aug-07 06:56N 38°00' W 130°17'919.4
2017-Aug-07 06:29N 37°54' W 130°10'919.2
2017-Aug-07 06:00N 37°47' W 130°01'1019.4
2017-Aug-07 05:30N 37°40' W 129°53'1019.6
2017-Aug-07 04:59N 37°33' W 129°44'1319.5
2017-Aug-07 04:20N 37°24' W 129°33'1119.4
2017-Aug-07 03:48N 37°16' W 129°24'54719.3
2017-Aug-05 23:30N 30°21' W 122°16'918.9
2017-Aug-05 23:00N 30°14' W 122°08'4219.0
2017-Aug-05 20:47N 29°46' W 121°31'10419.6
2017-Aug-05 15:30N 28°40' W 119°60'1019.5
2017-Aug-05 15:01N 28°34' W 119°51'1219.3
2017-Aug-05 14:23N 28°26' W 119°41'  
Track history (hours):
 
Tides and Currents Weather Stations Pressure Air Temp Water Temp Dewpoint Dewpoint Depression Visibility Wind Speed Wind Dir Waves Ship Positions

Clifford Maersk

Last reported at 2017-Aug-07 15:15 UTC. Time now 2017-Aug-21 08:26 UTC.
Position N 39°56' W 132°42'.
Warning: this ship's position is 13 days out of date.

Type: Ship (hazmat cat A). MMSI: 219840000.

Date/timePositionNaut miles runAvg speedWind from/ knotsBaromVisibWave heightAir tempDewpointWater temp
2017-Aug-07 15:15N 39°56' W 132°42'1719.5
2017-Aug-07 14:23N 39°44' W 132°26'819.3
2017-Aug-07 13:56N 39°38' W 132°18'919.4
2017-Aug-07 13:30N 39°32' W 132°10'1119.5
2017-Aug-07 12:55N 39°24' W 132°00'819.3
2017-Aug-07 12:30N 39°18' W 131°53'1019.4
2017-Aug-07 11:59N 39°11' W 131°44'1019.4
2017-Aug-07 11:30N 39°04' W 131°36'1019.3
2017-Aug-07 11:00N 38°57' W 131°27'1019.3
2017-Aug-07 10:30N 38°50' W 131°18'1119.4
2017-Aug-07 09:58N 38°43' W 131°09'1019.3
2017-Aug-07 09:26N 38°36' W 130°60'919.3
2017-Aug-07 08:58N 38°29' W 130°52'1519.3
2017-Aug-07 08:10N 38°18' W 130°38'319.5
2017-Aug-07 08:00N 38°16' W 130°35'1219.3
2017-Aug-07 07:22N 38°07' W 130°25'919.4
2017-Aug-07 06:56N 38°00' W 130°17'919.4
2017-Aug-07 06:29N 37°54' W 130°10'919.2
2017-Aug-07 06:00N 37°47' W 130°01'1019.4
2017-Aug-07 05:30N 37°40' W 129°53'1019.6
2017-Aug-07 04:59N 37°33' W 129°44'1319.5
2017-Aug-07 04:20N 37°24' W 129°33'1119.4
2017-Aug-07 03:48N 37°16' W 129°24'54719.3
2017-Aug-05 23:30N 30°21' W 122°16'918.9
2017-Aug-05 23:00N 30°14' W 122°08'4219.0
2017-Aug-05 20:47N 29°46' W 121°31'10419.6
2017-Aug-05 15:30N 28°40' W 119°60'1019.5
2017-Aug-05 15:01N 28°34' W 119°51'1219.3
2017-Aug-05 14:23N 28°26' W 119°41'  

Dump ship's entire track history